sensor_id;sensor_type;location;lat;lon;timestamp;temperature;humidity
652;DHT22;310;48.490;9.200;2022-11-18T00:00:46;13.60;50.60
652;DHT22;310;48.490;9.200;2022-11-18T00:03:12;13.40;50.80
652;DHT22;310;48.490;9.200;2022-11-18T00:05:38;13.40;50.80
652;DHT22;310;48.490;9.200;2022-11-18T00:08:04;13.40;50.80
652;DHT22;310;48.490;9.200;2022-11-18T00:10:29;13.40;50.90
652;DHT22;310;48.490;9.200;2022-11-18T00:12:55;13.40;50.10
652;DHT22;310;48.490;9.200;2022-11-18T00:15:39;13.70;50.60
652;DHT22;310;48.490;9.200;2022-11-18T00:18:05;13.60;49.70
652;DHT22;310;48.490;9.200;2022-11-18T00:20:33;14.00;49.90
652;DHT22;310;48.490;9.200;2022-11-18T00:22:58;13.60;49.80
652;DHT22;310;48.490;9.200;2022-11-18T00:25:24;13.70;48.40
652;DHT22;310;48.490;9.200;2022-11-18T00:27:50;13.70;46.40
652;DHT22;310;48.490;9.200;2022-11-18T00:30:16;13.60;45.30
652;DHT22;310;48.490;9.200;2022-11-18T00:32:42;13.60;45.60
652;DHT22;310;48.490;9.200;2022-11-18T00:35:08;14.00;45.80
652;DHT22;310;48.490;9.200;2022-11-18T00:37:33;13.70;46.30
652;DHT22;310;48.490;9.200;2022-11-18T00:39:59;13.70;48.10
652;DHT22;310;48.490;9.200;2022-11-18T00:42:24;13.80;45.90
652;DHT22;310;48.490;9.200;2022-11-18T00:45:09;13.90;46.30
652;DHT22;310;48.490;9.200;2022-11-18T00:47:35;13.80;47.50
652;DHT22;310;48.490;9.200;2022-11-18T00:50:00;13.60;48.10
652;DHT22;310;48.490;9.200;2022-11-18T00:52:26;13.40;48.60
652;DHT22;310;48.490;9.200;2022-11-18T00:54:51;13.30;49.80
652;DHT22;310;48.490;9.200;2022-11-18T00:57:17;13.20;50.60
652;DHT22;310;48.490;9.200;2022-11-18T00:59:42;13.40;50.10
652;DHT22;310;48.490;9.200;2022-11-18T01:02:08;13.40;50.10
652;DHT22;310;48.490;9.200;2022-11-18T01:04:33;13.40;50.80
652;DHT22;310;48.490;9.200;2022-11-18T01:06:59;13.40;50.60
652;DHT22;310;48.490;9.200;2022-11-18T01:09:25;13.50;50.60
652;DHT22;310;48.490;9.200;2022-11-18T01:11:50;13.40;50.20
652;DHT22;310;48.490;9.200;2022-11-18T01:14:34;13.40;50.40
652;DHT22;310;48.490;9.200;2022-11-18T01:17:00;13.40;50.70
652;DHT22;310;48.490;9.200;2022-11-18T01:19:26;13.40;49.60
652;DHT22;310;48.490;9.200;2022-11-18T01:21:52;13.40;51.20
652;DHT22;310;48.490;9.200;2022-11-18T01:24:17;13.10;51.50
652;DHT22;310;48.490;9.200;2022-11-18T01:26:43;13.50;48.70
652;DHT22;310;48.490;9.200;2022-11-18T01:29:09;13.60;50.30
652;DHT22;310;48.490;9.200;2022-11-18T01:31:36;13.60;51.10
652;DHT22;310;48.490;9.200;2022-11-18T01:34:01;13.40;50.90
652;DHT22;310;48.490;9.200;2022-11-18T01:36:28;13.70;50.60
652;DHT22;310;48.490;9.200;2022-11-18T01:38:54;13.40;50.40
652;DHT22;310;48.490;9.200;2022-11-18T01:41:22;13.30;51.10
652;DHT22;310;48.490;9.200;2022-11-18T01:43:53;13.70;51.90
652;DHT22;310;48.490;9.200;2022-11-18T01:46:20;13.40;50.50
652;DHT22;310;48.490;9.200;2022-11-18T01:48:50;13.30;49.80
652;DHT22;310;48.490;9.200;2022-11-18T01:51:19;13.40;49.10
652;DHT22;310;48.490;9.200;2022-11-18T01:53:50;13.40;49.20
652;DHT22;310;48.490;9.200;2022-11-18T01:56:23;13.20;50.10
652;DHT22;310;48.490;9.200;2022-11-18T01:58:57;12.70;52.60
652;DHT22;310;48.490;9.200;2022-11-18T02:01:23;12.60;53.80
652;DHT22;310;48.490;9.200;2022-11-18T02:03:50;12.80;53.00
652;DHT22;310;48.490;9.200;2022-11-18T02:06:17;13.10;51.60
652;DHT22;310;48.490;9.200;2022-11-18T02:08:43;13.70;49.30
652;DHT22;310;48.490;9.200;2022-11-18T02:11:11;13.30;50.30
652;DHT22;310;48.490;9.200;2022-11-18T02:13:59;13.10;51.50
652;DHT22;310;48.490;9.200;2022-11-18T02:21:57;13.10;53.10
652;DHT22;310;48.490;9.200;2022-11-18T02:30:10;11.90;58.50
652;DHT22;310;48.490;9.200;2022-11-18T02:35:50;12.10;57.90
652;DHT22;310;48.490;9.200;2022-11-18T02:38:26;12.60;55.70
652;DHT22;310;48.490;9.200;2022-11-18T02:40:55;13.00;52.90
652;DHT22;310;48.490;9.200;2022-11-18T02:43:38;12.80;52.30
652;DHT22;310;48.490;9.200;2022-11-18T02:46:11;12.20;57.20
652;DHT22;310;48.490;9.200;2022-11-18T02:48:42;12.90;53.30
652;DHT22;310;48.490;9.200;2022-11-18T02:51:10;13.10;51.70
652;DHT22;310;48.490;9.200;2022-11-18T02:53:37;13.30;50.00
652;DHT22;310;48.490;9.200;2022-11-18T02:56:05;13.50;49.00
652;DHT22;310;48.490;9.200;2022-11-18T02:58:32;13.50;48.70
652;DHT22;310;48.490;9.200;2022-11-18T03:00:59;12.90;51.30
652;DHT22;310;48.490;9.200;2022-11-18T03:03:28;12.90;51.60
652;DHT22;310;48.490;9.200;2022-11-18T03:11:31;12.50;54.10
652;DHT22;310;48.490;9.200;2022-11-18T03:14:20;11.90;57.90
652;DHT22;310;48.490;9.200;2022-11-18T03:17:06;12.30;56.50
652;DHT22;310;48.490;9.200;2022-11-18T03:22:25;12.90;52.30
652;DHT22;310;48.490;9.200;2022-11-18T03:25:16;13.10;51.50
652;DHT22;310;48.490;9.200;2022-11-18T03:27:51;13.40;51.70
652;DHT22;310;48.490;9.200;2022-11-18T03:30:19;13.40;51.20
652;DHT22;310;48.490;9.200;2022-11-18T03:32:56;13.30;50.60
652;DHT22;310;48.490;9.200;2022-11-18T03:35:25;13.40;49.50
652;DHT22;310;48.490;9.200;2022-11-18T03:38:00;13.30;50.50
652;DHT22;310;48.490;9.200;2022-11-18T03:40:29;13.40;50.20
652;DHT22;310;48.490;9.200;2022-11-18T03:43:01;13.30;50.40
652;DHT22;310;48.490;9.200;2022-11-18T03:45:48;13.30;50.50
652;DHT22;310;48.490;9.200;2022-11-18T03:48:21;13.10;51.50
652;DHT22;310;48.490;9.200;2022-11-18T03:50:51;13.10;51.50
652;DHT22;310;48.490;9.200;2022-11-18T03:53:20;13.20;50.80
652;DHT22;310;48.490;9.200;2022-11-18T03:55:50;13.20;51.50
652;DHT22;310;48.490;9.200;2022-11-18T03:58:37;13.20;50.70
652;DHT22;310;48.490;9.200;2022-11-18T04:01:12;13.10;51.50
652;DHT22;310;48.490;9.200;2022-11-18T04:03:40;12.90;51.90
652;DHT22;310;48.490;9.200;2022-11-18T04:06:35;13.10;51.50
652;DHT22;310;48.490;9.200;2022-11-18T04:09:08;13.60;51.90
652;DHT22;310;48.490;9.200;2022-11-18T04:11:41;13.10;51.50
652;DHT22;310;48.490;9.200;2022-11-18T04:14:30;13.10;51.50
652;DHT22;310;48.490;9.200;2022-11-18T04:16:57;13.20;50.80
652;DHT22;310;48.490;9.200;2022-11-18T04:19:22;13.20;51.50
652;DHT22;310;48.490;9.200;2022-11-18T04:21:48;13.00;51.40
652;DHT22;310;48.490;9.200;2022-11-18T04:24:14;13.00;50.60
652;DHT22;310;48.490;9.200;2022-11-18T04:26:40;12.20;54.30
652;DHT22;310;48.490;9.200;2022-11-18T04:29:06;12.10;56.60
652;DHT22;310;48.490;9.200;2022-11-18T04:31:32;11.90;57.60
652;DHT22;310;48.490;9.200;2022-11-18T04:33:57;12.20;56.50
652;DHT22;310;48.490;9.200;2022-11-18T04:36:23;12.20;55.60
652;DHT22;310;48.490;9.200;2022-11-18T04:38:49;11.90;58.20
652;DHT22;310;48.490;9.200;2022-11-18T04:41:14;11.80;59.10
652;DHT22;310;48.490;9.200;2022-11-18T04:43:40;11.30;61.80
652;DHT22;310;48.490;9.200;2022-11-18T04:46:06;11.00;62.40
652;DHT22;310;48.490;9.200;2022-11-18T04:48:32;11.10;63.40
652;DHT22;310;48.490;9.200;2022-11-18T04:51:02;11.00;63.70
652;DHT22;310;48.490;9.200;2022-11-18T04:53:28;11.00;65.60
652;DHT22;310;48.490;9.200;2022-11-18T04:55:54;10.70;68.10
652;DHT22;310;48.490;9.200;2022-11-18T04:58:19;10.60;69.50
652;DHT22;310;48.490;9.200;2022-11-18T05:00:45;11.30;65.20
652;DHT22;310;48.490;9.200;2022-11-18T05:03:10;12.10;61.10
652;DHT22;310;48.490;9.200;2022-11-18T05:05:36;12.00;57.00
652;DHT22;310;48.490;9.200;2022-11-18T05:08:02;12.10;54.20
652;DHT22;310;48.490;9.200;2022-11-18T05:10:27;12.10;51.90
652;DHT22;310;48.490;9.200;2022-11-18T05:12:53;11.80;53.80
652;DHT22;310;48.490;9.200;2022-11-18T05:15:20;12.20;51.40
652;DHT22;310;48.490;9.200;2022-11-18T05:17:48;12.60;49.10
652;DHT22;310;48.490;9.200;2022-11-18T05:20:14;12.70;48.30
652;DHT22;310;48.490;9.200;2022-11-18T05:22:40;12.50;48.80
652;DHT22;310;48.490;9.200;2022-11-18T05:25:06;12.10;50.50
652;DHT22;310;48.490;9.200;2022-11-18T05:27:31;12.30;48.80
652;DHT22;310;48.490;9.200;2022-11-18T05:29:57;12.60;48.80
652;DHT22;310;48.490;9.200;2022-11-18T05:32:23;12.70;49.50
652;DHT22;310;48.490;9.200;2022-11-18T05:34:49;12.90;48.60
652;DHT22;310;48.490;9.200;2022-11-18T05:37:15;13.00;48.60
652;DHT22;310;48.490;9.200;2022-11-18T05:39:40;12.90;49.50
652;DHT22;310;48.490;9.200;2022-11-18T05:42:06;12.80;49.20
652;DHT22;310;48.490;9.200;2022-11-18T05:44:50;12.80;49.70
652;DHT22;310;48.490;9.200;2022-11-18T05:47:17;12.70;50.40
652;DHT22;310;48.490;9.200;2022-11-18T05:49:42;12.90;51.30
652;DHT22;310;48.490;9.200;2022-11-18T05:52:08;12.80;50.40
652;DHT22;310;48.490;9.200;2022-11-18T05:54:34;13.10;50.10
652;DHT22;310;48.490;9.200;2022-11-18T05:57:02;13.00;49.50
652;DHT22;310;48.490;9.200;2022-11-18T05:59:28;13.00;49.10
652;DHT22;310;48.490;9.200;2022-11-18T06:02:05;13.00;48.80
652;DHT22;310;48.490;9.200;2022-11-18T06:04:33;13.00;49.40
652;DHT22;310;48.490;9.200;2022-11-18T06:09:52;13.10;48.80
652;DHT22;310;48.490;9.200;2022-11-18T06:12:22;12.90;49.60
652;DHT22;310;48.490;9.200;2022-11-18T06:14:53;13.20;50.00
652;DHT22;310;48.490;9.200;2022-11-18T06:17:29;12.90;49.70
652;DHT22;310;48.490;9.200;2022-11-18T06:19:57;13.10;49.20
652;DHT22;310;48.490;9.200;2022-11-18T06:22:23;12.90;50.20
652;DHT22;310;48.490;9.200;2022-11-18T06:24:50;13.50;48.70
652;DHT22;310;48.490;9.200;2022-11-18T06:27:15;12.80;48.10
652;DHT22;310;48.490;9.200;2022-11-18T06:29:41;12.80;48.40
652;DHT22;310;48.490;9.200;2022-11-18T06:32:07;12.50;48.50
652;DHT22;310;48.490;9.200;2022-11-18T06:34:32;12.20;48.10
652;DHT22;310;48.490;9.200;2022-11-18T06:36:58;11.80;50.20
652;DHT22;310;48.490;9.200;2022-11-18T06:39:23;11.20;52.10
652;DHT22;310;48.490;9.200;2022-11-18T06:41:51;11.10;53.00
652;DHT22;310;48.490;9.200;2022-11-18T06:44:18;11.20;51.80
652;DHT22;310;48.490;9.200;2022-11-18T06:46:43;11.70;52.30
652;DHT22;310;48.490;9.200;2022-11-18T06:49:26;12.00;50.40
652;DHT22;310;48.490;9.200;2022-11-18T06:51:53;12.20;49.10
652;DHT22;310;48.490;9.200;2022-11-18T06:54:19;12.40;49.80
652;DHT22;310;48.490;9.200;2022-11-18T06:56:44;12.40;48.00
652;DHT22;310;48.490;9.200;2022-11-18T06:59:10;12.30;50.40
652;DHT22;310;48.490;9.200;2022-11-18T07:01:38;12.40;49.90
652;DHT22;310;48.490;9.200;2022-11-18T07:04:04;12.50;50.20
652;DHT22;310;48.490;9.200;2022-11-18T07:06:32;12.80;50.20
652;DHT22;310;48.490;9.200;2022-11-18T07:09:02;12.70;48.20
652;DHT22;310;48.490;9.200;2022-11-18T07:11:28;12.50;49.60
652;DHT22;310;48.490;9.200;2022-11-18T07:13:54;12.60;50.30
652;DHT22;310;48.490;9.200;2022-11-18T07:16:25;12.70;51.00
652;DHT22;310;48.490;9.200;2022-11-18T07:18:52;12.80;50.10
652;DHT22;310;48.490;9.200;2022-11-18T07:21:20;12.70;51.10
652;DHT22;310;48.490;9.200;2022-11-18T07:23:46;12.80;49.30
652;DHT22;310;48.490;9.200;2022-11-18T07:26:12;12.90;48.70
652;DHT22;310;48.490;9.200;2022-11-18T07:28:38;12.50;49.20
652;DHT22;310;48.490;9.200;2022-11-18T07:31:08;12.40;50.80
652;DHT22;310;48.490;9.200;2022-11-18T07:33:34;12.20;49.40
652;DHT22;310;48.490;9.200;2022-11-18T07:36:06;12.30;48.80
652;DHT22;310;48.490;9.200;2022-11-18T07:38:32;12.00;50.00
652;DHT22;310;48.490;9.200;2022-11-18T07:41:07;11.70;51.40
652;DHT22;310;48.490;9.200;2022-11-18T07:43:34;12.10;49.60
652;DHT22;310;48.490;9.200;2022-11-18T07:46:21;12.40;47.90
652;DHT22;310;48.490;9.200;2022-11-18T07:48:48;12.20;50.60
652;DHT22;310;48.490;9.200;2022-11-18T07:51:15;12.90;48.60
652;DHT22;310;48.490;9.200;2022-11-18T07:53:42;13.00;46.00
652;DHT22;310;48.490;9.200;2022-11-18T07:56:08;13.10;47.10
652;DHT22;310;48.490;9.200;2022-11-18T07:58:34;13.00;46.50
652;DHT22;310;48.490;9.200;2022-11-18T08:03:36;12.90;46.90
652;DHT22;310;48.490;9.200;2022-11-18T08:06:03;12.70;49.10
652;DHT22;310;48.490;9.200;2022-11-18T08:08:29;12.00;51.00
652;DHT22;310;48.490;9.200;2022-11-18T08:10:56;12.40;48.70
652;DHT22;310;48.490;9.200;2022-11-18T08:13:22;13.20;48.80
652;DHT22;310;48.490;9.200;2022-11-18T08:15:47;12.70;48.90
652;DHT22;310;48.490;9.200;2022-11-18T08:18:13;12.40;50.50
652;DHT22;310;48.490;9.200;2022-11-18T08:20:39;13.00;50.30
652;DHT22;310;48.490;9.200;2022-11-18T08:23:04;12.60;50.50
652;DHT22;310;48.490;9.200;2022-11-18T08:25:30;12.70;51.50
652;DHT22;310;48.490;9.200;2022-11-18T08:27:55;12.30;50.70
652;DHT22;310;48.490;9.200;2022-11-18T08:30:21;11.90;51.40
652;DHT22;310;48.490;9.200;2022-11-18T08:32:47;12.20;53.60
652;DHT22;310;48.490;9.200;2022-11-18T08:35:12;11.90;52.00
652;DHT22;310;48.490;9.200;2022-11-18T08:37:38;11.50;55.10
652;DHT22;310;48.490;9.200;2022-11-18T08:40:04;11.50;57.50
652;DHT22;310;48.490;9.200;2022-11-18T08:42:30;11.40;56.60
652;DHT22;310;48.490;9.200;2022-11-18T08:44:55;11.60;56.80
652;DHT22;310;48.490;9.200;2022-11-18T08:47:21;11.60;57.20
652;DHT22;310;48.490;9.200;2022-11-18T08:49:48;12.00;55.00
652;DHT22;310;48.490;9.200;2022-11-18T08:52:13;12.00;54.60
652;DHT22;310;48.490;9.200;2022-11-18T08:54:40;11.70;55.50
652;DHT22;310;48.490;9.200;2022-11-18T08:57:05;11.50;56.90
652;DHT22;310;48.490;9.200;2022-11-18T08:59:31;11.40;58.40
652;DHT22;310;48.490;9.200;2022-11-18T09:01:57;12.20;55.40
652;DHT22;310;48.490;9.200;2022-11-18T09:04:22;12.80;52.90
652;DHT22;310;48.490;9.200;2022-11-18T09:06:48;13.20;52.30
652;DHT22;310;48.490;9.200;2022-11-18T09:09:14;12.80;50.10
652;DHT22;310;48.490;9.200;2022-11-18T09:11:40;13.30;50.90
652;DHT22;310;48.490;9.200;2022-11-18T09:14:06;12.90;50.30
652;DHT22;310;48.490;9.200;2022-11-18T09:16:33;13.10;50.30
652;DHT22;310;48.490;9.200;2022-11-18T09:18:59;13.20;48.90
652;DHT22;310;48.490;9.200;2022-11-18T09:21:25;12.50;50.60
652;DHT22;310;48.490;9.200;2022-11-18T09:23:52;12.40;54.90
652;DHT22;310;48.490;9.200;2022-11-18T09:26:19;12.20;55.70
652;DHT22;310;48.490;9.200;2022-11-18T09:28:46;12.50;53.70
652;DHT22;310;48.490;9.200;2022-11-18T09:31:14;12.10;55.00
652;DHT22;310;48.490;9.200;2022-11-18T09:33:40;12.90;56.30
652;DHT22;310;48.490;9.200;2022-11-18T09:36:15;12.80;53.90
652;DHT22;310;48.490;9.200;2022-11-18T09:38:41;13.00;52.60
652;DHT22;310;48.490;9.200;2022-11-18T09:44:07;12.60;53.70
652;DHT22;310;48.490;9.200;2022-11-18T09:49:39;12.10;55.60
652;DHT22;310;48.490;9.200;2022-11-18T09:52:18;12.40;54.40
652;DHT22;310;48.490;9.200;2022-11-18T09:54:46;12.60;53.70
652;DHT22;310;48.490;9.200;2022-11-18T09:57:18;12.40;53.70
652;DHT22;310;48.490;9.200;2022-11-18T09:59:44;12.30;55.50
652;DHT22;310;48.490;9.200;2022-11-18T10:04:44;12.10;54.10
652;DHT22;310;48.490;9.200;2022-11-18T10:10:44;12.30;53.60
652;DHT22;310;48.490;9.200;2022-11-18T10:13:33;12.10;53.90
652;DHT22;310;48.490;9.200;2022-11-18T10:26:39;12.30;53.60
652;DHT22;310;48.490;9.200;2022-11-18T10:29:06;12.30;57.00
652;DHT22;310;48.490;9.200;2022-11-18T10:32:14;11.60;59.30
652;DHT22;310;48.490;9.200;2022-11-18T10:34:54;11.70;58.80
652;DHT22;310;48.490;9.200;2022-11-18T10:37:26;12.10;57.30
652;DHT22;310;48.490;9.200;2022-11-18T10:39:59;12.50;54.70
652;DHT22;310;48.490;9.200;2022-11-18T10:44:53;12.10;55.20
652;DHT22;310;48.490;9.200;2022-11-18T10:47:30;12.30;54.10
652;DHT22;310;48.490;9.200;2022-11-18T10:50:00;12.40;56.80
652;DHT22;310;48.490;9.200;2022-11-18T10:52:28;12.90;51.90
652;DHT22;310;48.490;9.200;2022-11-18T10:55:22;12.90;52.40
652;DHT22;310;48.490;9.200;2022-11-18T10:57:51;13.50;50.40
652;DHT22;310;48.490;9.200;2022-11-18T11:00:38;13.80;48.70
652;DHT22;310;48.490;9.200;2022-11-18T11:03:40;14.30;48.00
652;DHT22;310;48.490;9.200;2022-11-18T11:11:27;13.30;53.40
652;DHT22;310;48.490;9.200;2022-11-18T11:14:00;13.70;50.70
652;DHT22;310;48.490;9.200;2022-11-18T11:16:28;13.70;48.40
652;DHT22;310;48.490;9.200;2022-11-18T11:18:58;13.80;47.80
652;DHT22;310;48.490;9.200;2022-11-18T11:21:26;14.20;45.40
652;DHT22;310;48.490;9.200;2022-11-18T11:23:54;13.40;46.70
652;DHT22;310;48.490;9.200;2022-11-18T11:26:40;13.60;48.10
652;DHT22;310;48.490;9.200;2022-11-18T11:37:36;13.40;49.60
652;DHT22;310;48.490;9.200;2022-11-18T11:45:33;13.20;46.90
652;DHT22;310;48.490;9.200;2022-11-18T11:48:24;12.80;51.10
652;DHT22;310;48.490;9.200;2022-11-18T11:51:12;12.80;50.30
652;DHT22;310;48.490;9.200;2022-11-18T11:59:16;12.60;49.10
652;DHT22;310;48.490;9.200;2022-11-18T12:04:49;11.20;59.90
652;DHT22;310;48.490;9.200;2022-11-18T12:07:21;11.90;58.10
652;DHT22;310;48.490;9.200;2022-11-18T12:18:18;11.20;56.40
652;DHT22;310;48.490;9.200;2022-11-18T12:20:50;11.40;55.40
652;DHT22;310;48.490;9.200;2022-11-18T12:25:52;12.50;49.50
652;DHT22;310;48.490;9.200;2022-11-18T12:28:25;12.20;47.30
652;DHT22;310;48.490;9.200;2022-11-18T12:36:08;11.00;58.80
652;DHT22;310;48.490;9.200;2022-11-18T12:38:33;11.10;58.10
652;DHT22;310;48.490;9.200;2022-11-18T12:40:59;11.20;57.50
652;DHT22;310;48.490;9.200;2022-11-18T12:51:45;12.10;53.90
652;DHT22;310;48.490;9.200;2022-11-18T12:56:53;12.90;50.90
652;DHT22;310;48.490;9.200;2022-11-18T12:59:33;13.10;49.00
652;DHT22;310;48.490;9.200;2022-11-18T13:05:03;14.40;47.10
652;DHT22;310;48.490;9.200;2022-11-18T13:07:31;13.90;47.90
652;DHT22;310;48.490;9.200;2022-11-18T13:10:25;12.90;46.90
652;DHT22;310;48.490;9.200;2022-11-18T13:12:53;12.20;50.20
652;DHT22;310;48.490;9.200;2022-11-18T13:15:19;12.90;48.00
652;DHT22;310;48.490;9.200;2022-11-18T13:18:19;13.30;48.90
652;DHT22;310;48.490;9.200;2022-11-18T13:20:58;12.80;45.50
652;DHT22;310;48.490;9.200;2022-11-18T13:23:45;12.70;46.30
652;DHT22;310;48.490;9.200;2022-11-18T13:26:19;12.30;45.40
652;DHT22;310;48.490;9.200;2022-11-18T13:34:30;12.60;45.40
652;DHT22;310;48.490;9.200;2022-11-18T13:36:58;12.50;44.40
652;DHT22;310;48.490;9.200;2022-11-18T13:39:29;12.70;45.00
652;DHT22;310;48.490;9.200;2022-11-18T13:42:06;13.80;45.90
652;DHT22;310;48.490;9.200;2022-11-18T13:44:34;13.30;43.40
652;DHT22;310;48.490;9.200;2022-11-18T13:52:40;13.10;41.30
652;DHT22;310;48.490;9.200;2022-11-18T13:55:26;12.50;44.70
652;DHT22;310;48.490;9.200;2022-11-18T14:00:42;12.00;43.40
652;DHT22;310;48.490;9.200;2022-11-18T14:03:32;11.60;45.10
652;DHT22;310;48.490;9.200;2022-11-18T14:05:59;12.10;44.80
652;DHT22;310;48.490;9.200;2022-11-18T14:08:35;11.60;44.20
652;DHT22;310;48.490;9.200;2022-11-18T14:11:03;11.40;45.90
652;DHT22;310;48.490;9.200;2022-11-18T14:13:34;11.90;44.80
652;DHT22;310;48.490;9.200;2022-11-18T14:18:49;11.60;44.20
652;DHT22;310;48.490;9.200;2022-11-18T14:21:30;11.70;45.90
652;DHT22;310;48.490;9.200;2022-11-18T14:23:56;12.40;43.40
652;DHT22;310;48.490;9.200;2022-11-18T14:26:48;12.30;42.90
652;DHT22;310;48.490;9.200;2022-11-18T14:29:17;11.20;47.20
652;DHT22;310;48.490;9.200;2022-11-18T14:32:23;11.70;45.30
652;DHT22;310;48.490;9.200;2022-11-18T14:35:00;12.00;45.10
652;DHT22;310;48.490;9.200;2022-11-18T14:37:26;12.30;42.10
652;DHT22;310;48.490;9.200;2022-11-18T14:39:56;11.70;44.40
652;DHT22;310;48.490;9.200;2022-11-18T14:42:23;12.00;44.70
652;DHT22;310;48.490;9.200;2022-11-18T14:44:49;12.40;42.70
652;DHT22;310;48.490;9.200;2022-11-18T14:47:29;12.10;44.20
652;DHT22;310;48.490;9.200;2022-11-18T14:49:54;12.10;45.20
652;DHT22;310;48.490;9.200;2022-11-18T14:52:20;12.60;44.20
652;DHT22;310;48.490;9.200;2022-11-18T14:54:45;13.50;42.10
652;DHT22;310;48.490;9.200;2022-11-18T14:57:14;13.70;42.00
652;DHT22;310;48.490;9.200;2022-11-18T14:59:40;13.60;41.70
652;DHT22;310;48.490;9.200;2022-11-18T15:02:13;13.60;39.90
652;DHT22;310;48.490;9.200;2022-11-18T15:04:39;13.30;41.10
652;DHT22;310;48.490;9.200;2022-11-18T15:07:07;13.30;40.30
652;DHT22;310;48.490;9.200;2022-11-18T15:09:33;13.70;41.20
652;DHT22;310;48.490;9.200;2022-11-18T15:11:59;13.90;40.60
652;DHT22;310;48.490;9.200;2022-11-18T15:14:24;14.40;42.40
652;DHT22;310;48.490;9.200;2022-11-18T15:16:50;13.40;39.50
652;DHT22;310;48.490;9.200;2022-11-18T15:19:16;13.40;42.10
652;DHT22;310;48.490;9.200;2022-11-18T15:21:42;14.20;40.20
652;DHT22;310;48.490;9.200;2022-11-18T15:24:08;14.10;39.10
652;DHT22;310;48.490;9.200;2022-11-18T15:26:39;14.20;37.70
652;DHT22;310;48.490;9.200;2022-11-18T15:29:07;13.30;39.00
652;DHT22;310;48.490;9.200;2022-11-18T15:31:35;12.60;41.50
652;DHT22;310;48.490;9.200;2022-11-18T15:34:01;12.10;42.60
652;DHT22;310;48.490;9.200;2022-11-18T15:36:26;12.30;44.00
652;DHT22;310;48.490;9.200;2022-11-18T15:38:53;12.40;42.40
652;DHT22;310;48.490;9.200;2022-11-18T15:41:23;12.80;41.40
652;DHT22;310;48.490;9.200;2022-11-18T15:43:51;12.70;42.60
652;DHT22;310;48.490;9.200;2022-11-18T15:46:19;13.10;40.50
652;DHT22;310;48.490;9.200;2022-11-18T15:48:45;13.70;41.40
652;DHT22;310;48.490;9.200;2022-11-18T15:51:11;13.80;40.20
652;DHT22;310;48.490;9.200;2022-11-18T15:53:37;13.90;40.20
652;DHT22;310;48.490;9.200;2022-11-18T15:56:29;13.50;38.60
652;DHT22;310;48.490;9.200;2022-11-18T15:59:06;14.50;39.70
652;DHT22;310;48.490;9.200;2022-11-18T16:01:35;13.40;38.70
652;DHT22;310;48.490;9.200;2022-11-18T16:04:03;13.70;38.50
652;DHT22;310;48.490;9.200;2022-11-18T16:06:29;13.30;40.10
652;DHT22;310;48.490;9.200;2022-11-18T16:08:55;13.10;39.50
652;DHT22;310;48.490;9.200;2022-11-18T16:11:21;13.20;40.60
652;DHT22;310;48.490;9.200;2022-11-18T16:14:07;13.10;39.50
652;DHT22;310;48.490;9.200;2022-11-18T16:16:34;13.40;39.50
652;DHT22;310;48.490;9.200;2022-11-18T16:19:03;12.70;41.80
652;DHT22;310;48.490;9.200;2022-11-18T16:21:31;12.70;41.00
652;DHT22;310;48.490;9.200;2022-11-18T16:23:59;12.80;41.90
652;DHT22;310;48.490;9.200;2022-11-18T16:26:26;12.80;42.80
652;DHT22;310;48.490;9.200;2022-11-18T16:28:52;13.30;43.10
652;DHT22;310;48.490;9.200;2022-11-18T16:31:19;13.40;40.80
652;DHT22;310;48.490;9.200;2022-11-18T16:34:07;13.20;40.80
652;DHT22;310;48.490;9.200;2022-11-18T16:36:33;12.90;42.10
652;DHT22;310;48.490;9.200;2022-11-18T16:39:19;12.70;42.20
652;DHT22;310;48.490;9.200;2022-11-18T16:41:48;12.70;41.50
652;DHT22;310;48.490;9.200;2022-11-18T16:44:15;12.90;39.80
652;DHT22;310;48.490;9.200;2022-11-18T16:46:45;12.80;41.30
652;DHT22;310;48.490;9.200;2022-11-18T16:49:13;12.50;40.30
652;DHT22;310;48.490;9.200;2022-11-18T16:51:40;12.30;41.90
652;DHT22;310;48.490;9.200;2022-11-18T16:54:07;12.50;42.30
652;DHT22;310;48.490;9.200;2022-11-18T16:56:33;12.60;41.40
652;DHT22;310;48.490;9.200;2022-11-18T16:59:05;12.20;43.40
652;DHT22;310;48.490;9.200;2022-11-18T17:01:32;12.40;41.30
652;DHT22;310;48.490;9.200;2022-11-18T17:03:58;12.50;42.00
652;DHT22;310;48.490;9.200;2022-11-18T17:06:25;12.50;41.10
652;DHT22;310;48.490;9.200;2022-11-18T17:08:51;12.50;41.40
652;DHT22;310;48.490;9.200;2022-11-18T17:11:17;12.70;41.80
652;DHT22;310;48.490;9.200;2022-11-18T17:13:43;12.50;41.70
652;DHT22;310;48.490;9.200;2022-11-18T17:16:14;11.90;43.40
652;DHT22;310;48.490;9.200;2022-11-18T17:18:41;11.90;43.10
652;DHT22;310;48.490;9.200;2022-11-18T17:21:12;12.10;42.10
652;DHT22;310;48.490;9.200;2022-11-18T17:23:39;12.00;42.40
652;DHT22;310;48.490;9.200;2022-11-18T17:26:06;12.10;42.50
652;DHT22;310;48.490;9.200;2022-11-18T17:28:33;11.80;43.00
652;DHT22;310;48.490;9.200;2022-11-18T17:31:12;12.10;43.20
652;DHT22;310;48.490;9.200;2022-11-18T17:33:39;11.90;42.20
652;DHT22;310;48.490;9.200;2022-11-18T17:36:07;11.80;42.80
652;DHT22;310;48.490;9.200;2022-11-18T17:38:34;11.40;44.10
652;DHT22;310;48.490;9.200;2022-11-18T17:41:00;11.60;43.90
652;DHT22;310;48.490;9.200;2022-11-18T17:43:27;11.30;44.60
652;DHT22;310;48.490;9.200;2022-11-18T17:45:55;11.00;45.10
652;DHT22;310;48.490;9.200;2022-11-18T17:48:23;11.10;45.90
652;DHT22;310;48.490;9.200;2022-11-18T17:50:49;11.50;44.80
652;DHT22;310;48.490;9.200;2022-11-18T17:53:15;12.10;43.70
652;DHT22;310;48.490;9.200;2022-11-18T17:55:41;11.90;43.30
652;DHT22;310;48.490;9.200;2022-11-18T17:58:08;11.70;44.20
652;DHT22;310;48.490;9.200;2022-11-18T18:00:34;11.70;43.70
652;DHT22;310;48.490;9.200;2022-11-18T18:03:01;11.00;45.70
652;DHT22;310;48.490;9.200;2022-11-18T18:05:27;10.90;47.10
652;DHT22;310;48.490;9.200;2022-11-18T18:07:54;11.10;46.60
652;DHT22;310;48.490;9.200;2022-11-18T18:10:20;11.40;46.30
652;DHT22;310;48.490;9.200;2022-11-18T18:12:46;11.60;45.20
652;DHT22;310;48.490;9.200;2022-11-18T18:15:30;11.30;45.20
652;DHT22;310;48.490;9.200;2022-11-18T18:17:56;10.90;48.00
652;DHT22;310;48.490;9.200;2022-11-18T18:20:22;11.10;48.10
652;DHT22;310;48.490;9.200;2022-11-18T18:22:48;11.40;45.80
652;DHT22;310;48.490;9.200;2022-11-18T18:25:13;11.80;43.60
652;DHT22;310;48.490;9.200;2022-11-18T18:27:39;11.60;44.10
652;DHT22;310;48.490;9.200;2022-11-18T18:30:06;11.70;45.10
652;DHT22;310;48.490;9.200;2022-11-18T18:32:33;11.60;44.50
652;DHT22;310;48.490;9.200;2022-11-18T18:34:59;11.10;45.60
652;DHT22;310;48.490;9.200;2022-11-18T18:37:25;11.40;45.30
652;DHT22;310;48.490;9.200;2022-11-18T18:39:51;11.60;43.70
652;DHT22;310;48.490;9.200;2022-11-18T18:42:16;11.70;44.60
652;DHT22;310;48.490;9.200;2022-11-18T18:44:42;11.10;45.10
652;DHT22;310;48.490;9.200;2022-11-18T18:47:26;11.40;45.60
652;DHT22;310;48.490;9.200;2022-11-18T18:49:52;11.30;45.90
652;DHT22;310;48.490;9.200;2022-11-18T18:52:17;10.50;49.70
652;DHT22;310;48.490;9.200;2022-11-18T18:54:43;10.80;49.80
652;DHT22;310;48.490;9.200;2022-11-18T18:57:09;11.20;47.90